Time;durP1;ratioP1;P1;durP2;ratioP2;P2;SDS_P1;SDS_P2;PMS_P1;PMS_P2;Temp;Humidity;BMP_temperature;BMP_pressure;BME280_temperature;BME280_humidity;BME280_pressure;Samples;Min_cycle;Max_cycle;Signal;HPM_P1;HPM_P2
2023/06/18 00:02:05;;;;;;;10.90;9.90;;;;;;;21.82;57.50;99319.50;105799;1261;70527;-75
2023/06/18 00:04:33;;;;;;;10.20;9.10;;;;;;;21.82;57.61;99317.27;105746;1253;72460;-73
2023/06/18 00:07:00;;;;;;;10.50;9.40;;;;;;;21.82;57.69;99319.00;105809;1256;60853;-74
2023/06/18 00:09:28;;;;;;;10.60;9.30;;;;;;;21.81;57.54;99321.06;105683;1256;60437;-75
2023/06/18 00:11:55;;;;;;;13.50;11.70;;;;;;;21.79;57.53;99313.84;105825;1257;74062;-72
2023/06/18 00:14:23;;;;;;;10.50;9.40;;;;;;;21.76;57.57;99313.04;105782;1259;68953;-73
2023/06/18 00:16:52;;;;;;;10.80;9.80;;;;;;;21.71;57.65;99311.52;105792;1254;72512;-73
2023/06/18 00:19:19;;;;;;;11.20;10.10;;;;;;;21.69;57.70;99311.13;105695;1259;60636;-74
2023/06/18 00:21:47;;;;;;;10.00;9.10;;;;;;;21.68;57.67;99309.11;105518;1262;60420;-74
2023/06/18 00:24:15;;;;;;;11.00;9.90;;;;;;;21.68;57.70;99313.48;105841;1256;72598;-76
2023/06/18 00:26:43;;;;;;;11.20;10.00;;;;;;;21.67;57.78;99313.00;105827;1259;70465;-74
2023/06/18 00:29:10;;;;;;;11.60;10.50;;;;;;;21.68;57.67;99313.27;105728;1261;74638;-74
2023/06/18 00:31:38;;;;;;;13.00;9.50;;;;;;;21.67;57.69;99312.23;105473;1254;60837;-76
2023/06/18 00:34:06;;;;;;;10.90;9.70;;;;;;;21.66;57.73;99313.13;105813;1260;60504;-75
2023/06/18 00:36:38;;;;;;;10.60;9.50;;;;;;;21.65;57.87;99308.09;106289;1259;74079;-74
2023/06/18 00:39:07;;;;;;;11.40;10.20;;;;;;;21.66;57.67;99305.89;105941;1259;69674;-76
2023/06/18 00:41:35;;;;;;;10.50;9.40;;;;;;;21.67;57.26;99307.48;105773;1257;72524;-76
2023/06/18 00:44:03;;;;;;;10.50;9.50;;;;;;;21.67;56.80;99309.05;105597;1254;60408;-74
2023/06/18 00:46:33;;;;;;;10.80;9.80;;;;;;;21.68;56.63;99307.92;105702;1259;60664;-74
2023/06/18 00:49:01;;;;;;;10.70;9.70;;;;;;;21.67;56.63;99308.73;105455;1259;74100;-74
2023/06/18 00:51:28;;;;;;;11.70;9.50;;;;;;;21.68;56.67;99308.95;106049;1254;69118;-72
2023/06/18 00:53:58;;;;;;;10.50;9.50;;;;;;;21.69;56.52;99310.36;106682;1261;71460;-74
2023/06/18 00:56:29;;;;;;;10.90;9.90;;;;;;;21.71;56.48;99309.62;107390;1254;60500;-74
2023/06/18 00:58:57;;;;;;;11.10;10.00;;;;;;;21.71;56.19;99309.14;106769;1259;60556;-72
2023/06/18 01:01:25;;;;;;;10.90;9.80;;;;;;;21.72;55.95;99307.86;105831;1258;73930;-75
2023/06/18 01:03:56;;;;;;;10.90;10.00;;;;;;;21.73;55.73;99308.42;105842;1263;68296;-73
2023/06/18 01:06:26;;;;;;;10.90;9.80;;;;;;;21.76;55.52;99310.00;105665;1262;72432;-74
2023/06/18 01:08:55;;;;;;;10.40;9.50;;;;;;;21.77;55.47;99310.20;105701;1262;60523;-75
2023/06/18 01:11:25;;;;;;;11.20;10.10;;;;;;;21.76;55.41;99310.50;105803;1261;60351;-75
2023/06/18 01:13:53;;;;;;;10.60;9.60;;;;;;;21.74;55.46;99312.91;105521;1262;73955;-73
2023/06/18 01:16:24;;;;;;;10.40;9.30;;;;;;;21.74;55.56;99314.64;105512;1260;70497;-71
2023/06/18 01:18:52;;;;;;;10.20;9.30;;;;;;;21.76;55.40;99313.48;105529;1260;71474;-74
2023/06/18 01:21:20;;;;;;;10.50;9.60;;;;;;;21.79;55.20;99311.13;105549;1253;60566;-73
2023/06/18 01:24:03;;;;;;;10.30;9.20;;;;;;;21.80;55.09;99310.67;105839;1260;60398;-73
2023/06/18 01:26:31;;;;;;;12.40;10.10;;;;;;;21.83;54.82;99312.64;105769;1256;72800;-74
2023/06/18 01:29:00;;;;;;;10.80;9.30;;;;;;;21.84;54.69;99316.17;105797;1254;70148;-73
2023/06/18 01:31:36;;;;;;;12.40;9.90;;;;;;;21.86;54.51;99315.38;105650;1261;72739;-73
2023/06/18 01:34:04;;;;;;;10.70;9.70;;;;;;;21.88;54.47;99315.45;105833;1259;60610;-72
2023/06/18 01:36:35;;;;;;;22.70;10.50;;;;;;;21.89;54.54;99316.39;105578;1258;60565;-73
2023/06/18 01:39:08;;;;;;;10.10;9.20;;;;;;;21.89;54.53;99317.68;105731;1254;72646;-70
2023/06/18 01:41:36;;;;;;;11.00;10.00;;;;;;;21.91;54.53;99317.38;105860;1259;68978;-72
2023/06/18 01:44:08;;;;;;;11.00;10.00;;;;;;;21.92;54.58;99315.61;105659;1254;71711;-72
2023/06/18 01:46:38;;;;;;;11.70;10.50;;;;;;;21.92;54.67;99314.85;105876;1259;60412;-71
2023/06/18 01:49:07;;;;;;;10.80;9.70;;;;;;;21.93;54.64;99319.79;105863;1256;60577;-71
2023/06/18 01:51:35;;;;;;;10.70;9.40;;;;;;;21.94;54.72;99321.30;106035;1260;72577;-72
2023/06/18 01:54:03;;;;;;;11.00;9.90;;;;;;;21.95;54.68;99323.31;105773;1262;69178;-72
2023/06/18 01:56:31;;;;;;;10.40;9.30;;;;;;;21.95;54.69;99319.48;105690;1257;71457;-74
2023/06/18 01:58:59;;;;;;;10.90;9.90;;;;;;;21.95;54.86;99321.16;105617;1259;60546;-71
2023/06/18 02:01:30;;;;;;;11.20;9.70;;;;;;;21.93;55.15;99322.65;105620;1259;60402;-72
2023/06/18 02:03:57;;;;;;;11.50;10.30;;;;;;;21.92;55.22;99322.20;105705;1259;72695;-70
2023/06/18 02:06:25;;;;;;;11.20;10.10;;;;;;;21.88;55.17;99322.16;105806;1254;72081;-73
2023/06/18 02:08:53;;;;;;;15.80;10.50;;;;;;;21.87;55.08;99324.80;105964;1259;72601;-70
2023/06/18 02:11:22;;;;;;;10.70;9.70;;;;;;;21.86;54.97;99326.56;105688;1257;60444;-74
2023/06/18 02:13:50;;;;;;;12.00;10.70;;;;;;;21.86;54.81;99326.36;105859;1259;60341;-74
2023/06/18 02:16:17;;;;;;;11.60;10.50;;;;;;;21.87;54.48;99329.87;105762;1259;73854;-73
2023/06/18 02:18:45;;;;;;;11.80;10.40;;;;;;;21.87;54.54;99326.38;105674;1262;70631;-74
2023/06/18 02:21:13;;;;;;;12.80;10.40;;;;;;;21.87;54.58;99330.65;105711;1260;72789;-74
2023/06/18 02:23:40;;;;;;;11.70;10.60;;;;;;;21.86;54.65;99334.58;105849;1260;60408;-75
2023/06/18 02:26:08;;;;;;;11.30;10.20;;;;;;;21.85;54.74;99336.41;105769;1253;60432;-74
2023/06/18 02:28:37;;;;;;;12.10;10.90;;;;;;;21.85;54.80;99343.98;105778;1263;73905;-76
2023/06/18 02:31:06;;;;;;;12.00;10.80;;;;;;;21.86;54.89;99341.33;105795;1262;69064;-75
2023/06/18 02:33:34;;;;;;;12.00;10.80;;;;;;;21.87;54.94;99344.16;105713;1260;72709;-75
2023/06/18 02:36:01;;;;;;;11.60;10.50;;;;;;;21.87;55.17;99344.97;105793;1254;60486;-73
2023/06/18 02:38:29;;;;;;;12.30;11.10;;;;;;;21.88;55.32;99348.42;105673;1255;60504;-73
2023/06/18 02:40:57;;;;;;;11.90;10.80;;;;;;;21.88;55.39;99349.20;105725;1259;72590;-74
2023/06/18 02:43:25;;;;;;;11.30;10.20;;;;;;;21.88;55.70;99347.46;105624;1263;67751;-73
2023/06/18 02:45:52;;;;;;;11.60;10.10;;;;;;;21.87;56.41;99344.48;105974;1261;71812;-75
2023/06/18 02:48:20;;;;;;;11.90;10.70;;;;;;;21.86;57.02;99348.26;106111;1255;60328;-75
2023/06/18 02:50:48;;;;;;;10.60;9.70;;;;;;;21.85;57.04;99350.52;106071;1254;60383;-73
2023/06/18 02:53:16;;;;;;;11.90;10.80;;;;;;;21.82;57.06;99351.51;105720;1262;73849;-75
2023/06/18 02:55:43;;;;;;;11.00;9.90;;;;;;;21.79;57.41;99346.06;105610;1263;69629;-75
2023/06/18 02:58:29;;;;;;;12.20;10.80;;;;;;;21.75;57.62;99346.13;105636;1260;71394;-74
2023/06/18 03:01:00;;;;;;;12.00;10.90;;;;;;;21.72;57.69;99348.95;105533;1262;60443;-75
2023/06/18 03:03:30;;;;;;;11.50;10.30;;;;;;;21.67;58.15;99350.89;105857;1254;60475;-74
2023/06/18 03:05:58;;;;;;;11.00;9.90;;;;;;;21.62;58.21;99348.38;105519;1260;74744;-76
2023/06/18 03:08:25;;;;;;;11.80;10.60;;;;;;;21.61;58.42;99345.17;105608;1260;69886;-74
2023/06/18 03:10:54;;;;;;;12.60;10.70;;;;;;;21.63;58.66;99343.54;105730;1260;71530;-76
2023/06/18 03:13:22;;;;;;;11.40;10.30;;;;;;;21.64;58.78;99344.89;105555;1258;60479;-74
2023/06/18 03:15:52;;;;;;;12.00;10.70;;;;;;;21.62;58.87;99347.25;105591;1261;60345;-71
2023/06/18 03:18:20;;;;;;;12.30;11.10;;;;;;;21.63;58.93;99349.30;105665;1256;73848;-73
2023/06/18 03:20:48;;;;;;;12.20;10.50;;;;;;;21.63;59.04;99348.13;105552;1259;69037;-74
2023/06/18 03:23:15;;;;;;;11.50;10.30;;;;;;;21.64;59.14;99354.73;105816;1260;71411;-73
2023/06/18 03:25:46;;;;;;;11.80;10.70;;;;;;;21.63;59.18;99359.27;105462;1263;60370;-72
2023/06/18 03:28:17;;;;;;;11.70;10.60;;;;;;;21.66;59.22;99360.66;105733;1255;60572;-72
2023/06/18 03:30:45;;;;;;;11.00;10.00;;;;;;;21.69;59.11;99358.59;105282;1254;72752;-70
2023/06/18 03:33:13;;;;;;;12.60;11.30;;;;;;;21.74;59.17;99361.73;105877;1261;71333;-71
2023/06/18 03:35:41;;;;;;;14.10;10.90;;;;;;;21.75;59.18;99360.73;105476;1267;71179;-70
2023/06/18 03:38:09;;;;;;;12.90;11.60;;;;;;;21.80;59.30;99361.42;105627;1259;60412;-74
2023/06/18 03:40:37;;;;;;;11.90;10.40;;;;;;;21.85;59.44;99364.80;105897;1261;60492;-75
2023/06/18 03:43:04;;;;;;;13.40;11.20;;;;;;;21.90;59.19;99362.42;106147;1259;74080;-71
2023/06/18 03:45:32;;;;;;;11.70;10.50;;;;;;;21.95;59.04;99364.75;106487;1262;69163;-71
2023/06/18 03:47:59;;;;;;;12.60;11.30;;;;;;;21.98;58.90;99367.11;106409;1260;72784;-74
2023/06/18 03:50:32;;;;;;;12.30;11.20;;;;;;;22.00;58.91;99367.02;105747;1260;60542;-74
2023/06/18 03:53:00;;;;;;;12.50;11.30;;;;;;;22.02;58.94;99368.73;105747;1259;60607;-73
2023/06/18 03:55:27;;;;;;;11.20;10.10;;;;;;;22.07;59.09;99372.19;105513;1259;72763;-76
2023/06/18 03:57:56;;;;;;;11.80;10.70;;;;;;;22.11;59.29;99370.19;105929;1262;69215;-73
2023/06/18 04:00:25;;;;;;;12.00;10.80;;;;;;;22.17;59.37;99375.34;105849;1268;71453;-73
2023/06/18 04:02:52;;;;;;;12.60;11.30;;;;;;;22.23;59.52;99370.28;105646;1257;60549;-74
2023/06/18 04:05:20;;;;;;;11.70;10.60;;;;;;;22.27;59.79;99374.61;105870;1260;60488;-73
2023/06/18 04:07:47;;;;;;;12.80;11.00;;;;;;;22.31;59.72;99378.79;105745;1254;73773;-75
2023/06/18 04:10:16;;;;;;;12.60;11.30;;;;;;;22.39;59.75;99378.14;105569;1261;70166;-74
2023/06/18 04:12:43;;;;;;;13.90;12.70;;;;;;;22.46;59.63;99381.76;105774;1260;72468;-73
2023/06/18 04:15:11;;;;;;;14.30;12.90;;;;;;;22.51;59.43;99381.09;105575;1260;60901;-74
2023/06/18 04:17:40;;;;;;;13.30;12.00;;;;;;;22.53;59.18;99379.92;105543;1255;60546;-72
2023/06/18 04:20:10;;;;;;;12.60;11.40;;;;;;;22.54;58.95;99381.12;105709;1257;73909;-74
2023/06/18 04:22:37;;;;;;;13.30;12.00;;;;;;;22.59;58.97;99377.32;105655;1254;69583;-73
2023/06/18 04:25:06;;;;;;;13.40;12.20;;;;;;;22.67;58.96;99382.05;105604;1260;72748;-74
2023/06/18 04:27:33;;;;;;;15.50;13.90;;;;;;;22.75;58.80;99382.83;105742;1260;60664;-75
2023/06/18 04:30:02;;;;;;;15.40;13.80;;;;;;;22.84;58.33;99383.13;105675;1254;60348;-73
2023/06/18 04:32:30;;;;;;;14.70;13.20;;;;;;;22.92;57.55;99383.79;105870;1254;72613;-74
2023/06/18 04:34:57;;;;;;;15.30;13.80;;;;;;;23.00;56.94;99385.10;105696;1254;69032;-73
2023/06/18 04:37:25;;;;;;;14.90;13.50;;;;;;;23.06;56.81;99383.34;105760;1259;74192;-73
2023/06/18 04:39:54;;;;;;;14.70;12.60;;;;;;;23.14;56.68;99387.73;106030;1258;60437;-73
2023/06/18 04:42:21;;;;;;;14.60;13.10;;;;;;;23.22;56.87;99386.38;106058;1260;60467;-72
2023/06/18 04:44:50;;;;;;;16.90;13.40;;;;;;;23.29;56.69;99388.23;105894;1262;75892;-73
2023/06/18 04:47:17;;;;;;;14.00;12.20;;;;;;;23.39;56.53;99388.23;105680;1260;68527;-75
2023/06/18 04:49:45;;;;;;;15.60;14.00;;;;;;;23.52;56.42;99390.38;105891;1254;72799;-72
2023/06/18 04:52:13;;;;;;;14.80;13.20;;;;;;;23.66;56.31;99391.60;105682;1254;60542;-73
2023/06/18 04:54:42;;;;;;;15.40;12.10;;;;;;;23.82;56.03;99393.00;105893;1255;60579;-72
2023/06/18 04:57:10;;;;;;;13.40;12.10;;;;;;;23.94;56.01;99396.16;105760;1260;72917;-74
2023/06/18 04:59:39;;;;;;;15.40;12.90;;;;;;;24.09;55.64;99399.27;105733;1254;69932;-74
2023/06/18 05:02:08;;;;;;;13.70;12.10;;;;;;;24.25;55.39;99405.77;105703;1261;75034;-72
2023/06/18 05:04:36;;;;;;;11.40;10.40;;;;;;;24.40;54.90;99407.50;105823;1259;60412;-73
2023/06/18 05:07:03;;;;;;;14.90;11.40;;;;;;;24.53;54.91;99404.95;105702;1255;60682;-72
2023/06/18 05:09:32;;;;;;;11.60;10.50;;;;;;;24.65;54.38;99407.48;105725;1254;73930;-76
2023/06/18 05:11:59;;;;;;;11.60;10.60;;;;;;;24.76;53.26;99410.86;107900;1254;69202;-75
2023/06/18 05:14:28;;;;;;;13.10;10.90;;;;;;;24.84;52.09;99412.27;106752;1260;71495;-74
2023/06/18 05:16:55;;;;;;;11.90;10.90;;;;;;;24.92;52.06;99415.44;105852;1254;61237;-73
2023/06/18 05:19:23;;;;;;;13.10;11.70;;;;;;;24.98;52.25;99416.32;106196;1258;60441;-75
2023/06/18 05:21:51;;;;;;;12.40;11.20;;;;;;;25.02;52.42;99414.35;106103;1254;72540;-76
2023/06/18 05:24:19;;;;;;;12.80;11.50;;;;;;;25.06;52.15;99417.02;106143;1254;68948;-74
2023/06/18 05:26:46;;;;;;;13.30;12.00;;;;;;;25.10;51.44;99415.00;106112;1257;71452;-77
2023/06/18 05:29:18;;;;;;;14.40;12.20;;;;;;;25.12;50.75;99417.52;106841;1254;60367;-77
2023/06/18 05:31:54;;;;;;;13.10;11.00;;;;;;;25.17;50.91;99420.23;108553;1260;60399;-74
2023/06/18 05:34:28;;;;;;;12.60;11.40;;;;;;;25.23;51.09;99418.08;108658;1254;72919;-77
2023/06/18 05:36:56;;;;;;;12.70;10.90;;;;;;;25.30;51.00;99416.88;107150;1261;69304;-75
2023/06/18 05:39:23;;;;;;;13.30;11.40;;;;;;;25.37;50.94;99419.96;106224;1254;72841;-73
2023/06/18 05:41:51;;;;;;;15.20;12.30;;;;;;;25.42;50.98;99422.36;107368;1254;60310;-74
2023/06/18 05:44:19;;;;;;;13.50;12.00;;;;;;;25.47;50.29;99428.22;108328;1254;60327;-75
2023/06/18 05:46:47;;;;;;;14.00;11.20;;;;;;;25.51;49.94;99429.95;108459;1254;72668;-75
2023/06/18 05:49:15;;;;;;;12.70;11.40;;;;;;;25.55;49.47;99428.36;107954;1254;68757;-75
2023/06/18 05:51:45;;;;;;;13.60;11.50;;;;;;;25.59;48.85;99430.98;108112;1255;71650;-75
2023/06/18 05:54:13;;;;;;;13.80;12.20;;;;;;;25.60;48.21;99435.00;108117;1254;61126;-74
2023/06/18 05:56:41;;;;;;;11.70;10.50;;;;;;;25.63;48.25;99432.16;108185;1252;60165;-77
2023/06/18 05:59:08;;;;;;;11.80;10.60;;;;;;;25.73;48.11;99431.76;107792;1254;73141;-71
2023/06/18 06:01:40;;;;;;;12.00;10.80;;;;;;;25.87;47.95;99430.53;106767;1260;69077;-74
2023/06/18 06:04:08;;;;;;;12.50;9.90;;;;;;;26.01;47.67;99429.20;106611;1258;71326;-74
2023/06/18 06:06:36;;;;;;;13.60;10.70;;;;;;;26.20;47.78;99432.77;106725;1254;212508;-73
2023/06/18 06:10:57;;;;;;;13.30;10.90;;;;;;;26.56;47.03;99429.21;103550;1292;600409;-73
2023/06/18 06:13:24;;;;;;;12.60;10.90;;;;;;;26.68;46.81;99428.90;106186;1259;59156;-70
2023/06/18 06:15:58;;;;;;;11.60;10.50;;;;;;;26.81;46.57;99432.45;106734;1260;59106;-73
2023/06/18 06:18:27;;;;;;;11.60;10.50;;;;;;;26.89;45.84;99437.48;106570;1255;71116;-73
2023/06/18 06:20:54;;;;;;;11.70;10.70;;;;;;;26.98;46.67;99439.65;106030;1260;69039;-72
2023/06/18 06:23:22;;;;;;;13.50;12.10;;;;;;;27.02;47.76;99437.55;105779;1260;71352;-72
2023/06/18 06:25:50;;;;;;;11.40;10.30;;;;;;;27.04;46.63;99442.48;105648;1253;61126;-70
2023/06/18 06:28:18;;;;;;;13.00;10.40;;;;;;;27.06;45.66;99440.40;105672;1253;59536;-73
2023/06/18 06:30:45;;;;;;;10.80;9.90;;;;;;;27.04;45.31;99442.05;105938;1258;72186;-76
2023/06/18 06:33:13;;;;;;;12.90;11.20;;;;;;;27.05;45.52;99442.26;105704;1260;68995;-74
2023/06/18 06:35:41;;;;;;;12.30;11.00;;;;;;;27.10;46.39;99446.27;105954;1258;71499;-71
2023/06/18 06:38:10;;;;;;;14.30;11.60;;;;;;;27.15;46.86;99448.95;106178;1253;59832;-75
2023/06/18 06:40:38;;;;;;;11.60;10.40;;;;;;;27.17;47.16;99451.71;105882;1254;59816;-72
2023/06/18 06:43:06;;;;;;;13.10;11.80;;;;;;;27.19;46.99;99449.89;105746;1253;73125;-72
2023/06/18 06:45:48;;;;;;;12.10;10.70;;;;;;;27.21;46.31;99448.84;105833;1259;69581;-74
2023/06/18 06:48:34;;;;;;;13.00;11.40;;;;;;;27.28;46.75;99446.36;105808;1253;72758;-74
2023/06/18 06:51:23;;;;;;;12.70;11.50;;;;;;;27.36;46.86;99449.98;105672;1253;60115;-73
2023/06/18 06:53:53;;;;;;;14.70;11.40;;;;;;;27.39;46.86;99455.75;105823;1253;59692;-75
2023/06/18 06:56:21;;;;;;;12.60;11.30;;;;;;;27.41;46.74;99452.73;105866;1259;75529;-74
2023/06/18 06:58:50;;;;;;;12.80;11.40;;;;;;;27.45;46.92;99454.34;105569;1254;70536;-74
2023/06/18 07:01:20;;;;;;;13.10;11.80;;;;;;;27.44;47.39;99453.15;105702;1261;71630;-72
2023/06/18 07:03:50;;;;;;;12.50;10.60;;;;;;;27.43;47.63;99460.20;105864;1259;61142;-71
2023/06/18 07:06:18;;;;;;;13.80;11.50;;;;;;;27.43;47.64;99460.41;105856;1253;59706;-73
2023/06/18 07:08:46;;;;;;;12.30;10.80;;;;;;;27.45;47.88;99460.61;105919;1259;73083;-73
2023/06/18 07:11:13;;;;;;;13.40;12.00;;;;;;;27.47;47.74;99463.10;105726;1257;71130;-74
2023/06/18 07:13:41;;;;;;;11.60;10.40;;;;;;;27.49;47.79;99466.14;105766;1253;72776;-73
2023/06/18 07:16:08;;;;;;;12.40;11.10;;;;;;;27.52;47.49;99468.45;105631;1256;59794;-74
2023/06/18 07:18:36;;;;;;;13.50;11.70;;;;;;;27.57;47.12;99466.23;105692;1253;60035;-72
2023/06/18 07:21:03;;;;;;;12.60;11.20;;;;;;;27.63;46.66;99465.63;105680;1260;73099;-76
2023/06/18 07:23:30;;;;;;;11.70;10.70;;;;;;;27.73;46.39;99466.84;105681;1259;69248;-72
2023/06/18 07:25:58;;;;;;;12.70;11.40;;;;;;;27.81;46.15;99465.38;105911;1253;72656;-74
2023/06/18 07:28:25;;;;;;;12.10;10.80;;;;;;;27.91;46.13;99465.85;105651;1261;60537;-73
2023/06/18 07:30:53;;;;;;;13.00;11.60;;;;;;;28.06;46.28;99466.63;105655;1253;60941;-73
2023/06/18 07:33:20;;;;;;;14.40;11.50;;;;;;;28.19;45.80;99463.56;105805;1254;73172;-73
2023/06/18 07:35:48;;;;;;;13.30;12.00;;;;;;;28.33;45.58;99460.94;105828;1254;70532;-74
2023/06/18 07:38:16;;;;;;;13.40;11.30;;;;;;;28.49;45.28;99460.79;105910;1255;72728;-72
2023/06/18 07:40:43;;;;;;;12.40;11.10;;;;;;;28.67;44.98;99463.13;105657;1257;60048;-73
2023/06/18 07:43:11;;;;;;;13.60;12.00;;;;;;;28.85;44.82;99460.54;105647;1253;59520;-74
2023/06/18 07:45:38;;;;;;;13.30;12.00;;;;;;;28.95;44.51;99464.63;105400;1253;71822;-72
2023/06/18 07:48:07;;;;;;;13.40;11.80;;;;;;;29.05;44.11;99464.36;105575;1260;70266;-73
2023/06/18 07:50:35;;;;;;;11.60;10.60;;;;;;;29.16;43.34;99460.38;105613;1253;72653;-74
2023/06/18 07:53:03;;;;;;;13.00;11.80;;;;;;;29.34;42.57;99465.30;105693;1259;59637;-75
2023/06/18 07:55:31;;;;;;;13.50;11.70;;;;;;;29.52;42.47;99464.88;105332;1254;59710;-72
2023/06/18 07:57:59;;;;;;;14.10;11.60;;;;;;;29.67;42.72;99468.77;105780;1253;73067;-74
2023/06/18 08:00:26;;;;;;;12.50;11.20;;;;;;;29.83;42.77;99469.27;105785;1259;70344;-75
2023/06/18 08:02:54;;;;;;;15.20;11.60;;;;;;;30.00;42.31;99470.63;105805;1253;71039;-75
2023/06/18 08:05:21;;;;;;;15.20;11.00;;;;;;;30.14;42.17;99471.23;105712;1259;60458;-74
2023/06/18 08:07:49;;;;;;;11.20;10.20;;;;;;;30.28;41.69;99469.66;105782;1254;60217;-74
2023/06/18 08:10:16;;;;;;;10.30;9.30;;;;;;;30.44;41.33;99462.50;105696;1253;72468;-76
2023/06/18 08:12:43;;;;;;;10.40;9.50;;;;;;;30.58;40.60;99468.59;105762;1259;69167;-75
2023/06/18 08:15:11;;;;;;;9.20;8.50;;;;;;;30.65;39.10;99469.23;105784;1253;72727;-75
2023/06/18 08:17:38;;;;;;;9.80;8.90;;;;;;;30.64;38.46;99465.77;105822;1254;60269;-74
2023/06/18 08:20:07;;;;;;;9.90;9.10;;;;;;;30.67;38.27;99470.36;105643;1253;60033;-72
2023/06/18 08:22:35;;;;;;;11.20;9.60;;;;;;;30.72;38.39;99468.98;105850;1256;73116;-76
2023/06/18 08:25:03;;;;;;;10.60;9.50;;;;;;;30.80;38.20;99467.21;105856;1259;70419;-76
2023/06/18 08:27:31;;;;;;;11.10;10.00;;;;;;;30.89;38.18;99464.27;105680;1256;71636;-72
2023/06/18 08:29:58;;;;;;;10.20;9.30;;;;;;;30.97;38.45;99463.07;105646;1259;59668;-75
2023/06/18 08:32:25;;;;;;;11.50;10.30;;;;;;;31.01;38.31;99462.86;105836;1260;59819;-75
2023/06/18 08:34:53;;;;;;;10.20;9.30;;;;;;;31.12;38.62;99465.63;106084;1259;72857;-75
2023/06/18 08:37:20;;;;;;;9.30;8.60;;;;;;;31.25;38.08;99462.83;105881;1254;70604;-73
2023/06/18 08:39:48;;;;;;;7.70;7.00;;;;;;;31.35;36.59;99466.29;105769;1259;71420;-73
2023/06/18 08:42:20;;;;;;;8.20;7.50;;;;;;;31.44;35.65;99464.55;105894;1258;59996;-72
2023/06/18 08:44:48;;;;;;;9.80;7.90;;;;;;;31.50;34.94;99463.25;105835;1256;59958;-73
2023/06/18 08:47:17;;;;;;;9.70;8.50;;;;;;;31.58;35.08;99467.22;105727;1258;73193;-71
2023/06/18 08:49:45;;;;;;;7.50;6.90;;;;;;;31.67;34.75;99470.98;105784;1261;68678;-72
2023/06/18 08:52:12;;;;;;;7.60;7.00;;;;;;;31.74;33.68;99467.56;105571;1259;72516;-72
2023/06/18 08:54:40;;;;;;;8.60;7.60;;;;;;;31.77;33.26;99461.89;105818;1258;59693;-71
2023/06/18 08:57:12;;;;;;;8.10;7.40;;;;;;;31.82;33.39;99458.63;106031;1253;59670;-70
2023/06/18 08:59:40;;;;;;;7.90;7.20;;;;;;;31.96;33.31;99452.42;105892;1261;72366;-71
2023/06/18 09:02:08;;;;;;;7.80;7.10;;;;;;;32.12;32.37;99456.73;105807;1253;69023;-70
2023/06/18 09:04:36;;;;;;;8.20;7.40;;;;;;;32.29;32.11;99455.02;105709;1262;72759;-72
2023/06/18 09:07:04;;;;;;;7.50;6.90;;;;;;;32.47;31.48;99448.05;105771;1254;59626;-72
2023/06/18 09:09:31;;;;;;;7.60;7.00;;;;;;;32.66;31.09;99447.72;105853;1261;60060;-73
2023/06/18 09:11:58;;;;;;;8.10;7.30;;;;;;;32.81;29.61;99449.80;105578;1253;71839;-70
2023/06/18 09:14:27;;;;;;;8.40;7.70;;;;;;;32.91;29.33;99441.45;105672;1257;70123;-67
2023/06/18 09:16:54;;;;;;;7.80;7.00;;;;;;;33.08;29.75;99444.09;105570;1254;72703;-67
2023/06/18 09:19:23;;;;;;;9.80;7.80;;;;;;;33.29;29.07;99441.51;105404;1260;59629;-70
2023/06/18 09:21:51;;;;;;;7.60;6.90;;;;;;;33.50;28.81;99444.59;105978;1260;60539;-72
2023/06/18 09:24:21;;;;;;;8.20;7.50;;;;;;;33.76;28.31;99449.17;105754;1259;75189;-74
2023/06/18 09:26:58;;;;;;;8.30;7.30;;;;;;;34.09;28.06;99448.21;105913;1260;69429;-73
2023/06/18 09:29:29;;;;;;;8.10;7.40;;;;;;;34.45;27.92;99439.31;105845;1254;75290;-73
2023/06/18 09:32:12;;;;;;;8.60;7.50;;;;;;;34.99;27.47;99438.38;105912;1254;59797;-73
2023/06/18 09:34:40;;;;;;;7.80;7.10;;;;;;;35.54;27.04;99435.23;105840;1260;59676;-73
2023/06/18 09:37:13;;;;;;;8.60;7.80;;;;;;;36.02;26.96;99429.87;105948;1253;63364;-73
2023/06/18 09:39:40;;;;;;;8.60;7.70;;;;;;;36.38;26.29;99421.70;105858;1261;60123;-73
2023/06/18 09:42:09;;;;;;;7.40;6.90;;;;;;;36.64;26.53;99419.63;105878;1260;63715;-72
2023/06/18 09:44:37;;;;;;;8.20;7.50;;;;;;;36.82;26.70;99424.58;105963;1257;59835;-71
2023/06/18 09:47:12;;;;;;;8.10;7.40;;;;;;;36.87;26.12;99424.73;105572;1258;59545;-72
2023/06/18 09:49:46;;;;;;;7.60;7.00;;;;;;;36.84;26.16;99419.58;105598;1255;63332;-69
2023/06/18 09:52:15;;;;;;;8.00;7.40;;;;;;;36.77;26.37;99421.13;105311;1260;68293;-73
2023/06/18 09:54:43;;;;;;;8.90;8.20;;;;;;;36.73;26.51;99420.21;105683;1257;64834;-69
2023/06/18 09:57:12;;;;;;;8.40;7.70;;;;;;;36.68;26.71;99412.88;105970;1257;59729;-71
2023/06/18 09:59:40;;;;;;;8.80;7.80;;;;;;;36.66;26.78;99410.52;105994;1259;59698;-73
2023/06/18 10:02:12;;;;;;;8.00;7.40;;;;;;;36.62;27.21;99405.56;105585;1259;62850;-72
2023/06/18 10:04:41;;;;;;;9.70;8.70;;;;;;;36.54;27.46;99410.95;105710;1264;60159;-69
2023/06/18 10:07:15;;;;;;;8.60;7.80;;;;;;;36.48;27.40;99413.05;105556;1257;63091;-74
2023/06/18 10:09:47;;;;;;;9.90;8.80;;;;;;;36.36;27.70;99409.79;105559;1254;59645;-73
2023/06/18 10:12:15;;;;;;;8.20;7.40;;;;;;;36.16;27.61;99409.71;105749;1260;59511;-70
2023/06/18 10:14:43;;;;;;;8.70;8.00;;;;;;;35.80;27.79;99414.57;105579;1254;64276;-74
2023/06/18 10:17:20;;;;;;;8.20;7.60;;;;;;;35.35;27.74;99415.42;105317;1258;61473;-76
2023/06/18 10:19:52;;;;;;;8.40;7.60;;;;;;;34.84;27.64;99415.81;106066;1257;62534;-73
2023/06/18 10:22:20;;;;;;;8.10;7.40;;;;;;;34.39;27.90;99414.92;106154;1257;60514;-74
2023/06/18 10:25:05;;;;;;;8.50;7.70;;;;;;;34.08;28.06;99416.99;105821;1259;60720;-75
2023/06/18 10:27:33;;;;;;;8.60;7.80;;;;;;;33.87;28.48;99416.25;106126;1260;73878;-73
2023/06/18 10:30:01;;;;;;;8.70;8.00;;;;;;;33.89;28.99;99420.20;106007;1258;70112;-72
2023/06/18 10:32:30;;;;;;;8.60;7.80;;;;;;;34.19;28.97;99415.71;105652;1253;71456;-71
2023/06/18 10:34:59;;;;;;;8.50;7.60;;;;;;;34.61;28.05;99412.42;106300;1258;60481;-71
2023/06/18 10:37:27;;;;;;;7.40;6.70;;;;;;;35.02;27.59;99413.84;106130;1254;60429;-73
2023/06/18 10:39:55;;;;;;;8.50;7.60;;;;;;;35.41;27.47;99402.44;106067;1253;74676;-74
2023/06/18 10:42:23;;;;;;;8.10;7.40;;;;;;;35.59;27.87;99403.84;106072;1259;60523;-74
2023/06/18 10:44:53;;;;;;;7.70;7.00;;;;;;;35.74;28.04;99406.34;106220;1258;63863;-74
2023/06/18 10:47:22;;;;;;;7.90;7.20;;;;;;;35.78;28.03;99407.17;106061;1257;60526;-71
2023/06/18 10:50:02;;;;;;;10.90;7.90;;;;;;;35.64;28.20;99409.64;106038;1257;60626;-75
2023/06/18 10:52:31;;;;;;;7.70;7.00;;;;;;;35.51;28.44;99408.39;106279;1256;63634;-77
2023/06/18 10:55:09;;;;;;;8.00;7.30;;;;;;;35.52;28.32;99405.59;106314;1260;60853;-76
2023/06/18 10:57:46;;;;;;;8.90;8.10;;;;;;;35.67;28.40;99405.71;106823;1253;62569;-73
2023/06/18 11:00:15;;;;;;;8.90;8.20;;;;;;;35.98;28.44;99406.70;109287;1253;57911;-76
2023/06/18 11:02:43;;;;;;;7.50;6.90;;;;;;;36.45;28.14;99404.52;109120;1254;57700;-73
2023/06/18 11:05:16;;;;;;;7.50;6.80;;;;;;;36.91;27.63;99400.94;109068;1252;65272;-76
2023/06/18 11:07:44;;;;;;;8.10;7.50;;;;;;;37.11;27.55;99401.79;108923;1251;60356;-74
2023/06/18 11:10:11;;;;;;;8.20;7.30;;;;;;;37.12;27.73;99399.28;108606;1253;64708;-73
2023/06/18 11:12:39;;;;;;;8.10;7.30;;;;;;;37.11;27.52;99404.95;108869;1253;59797;-76
2023/06/18 11:15:20;;;;;;;8.30;7.60;;;;;;;37.23;27.25;99404.83;108327;1258;60423;-73
2023/06/18 11:17:51;;;;;;;7.70;7.00;;;;;;;37.52;26.76;99406.20;108004;1254;63698;-74
2023/06/18 11:20:22;;;;;;;7.80;7.00;;;;;;;37.72;26.62;99409.25;107941;1252;61712;-74
2023/06/18 11:22:57;;;;;;;8.70;8.00;;;;;;;37.92;26.62;99410.92;108649;1253;62585;-73
2023/06/18 11:25:25;;;;;;;9.70;7.40;;;;;;;38.14;26.51;99413.10;108620;1254;60163;-71